Time;durP1;ratioP1;P1;durP2;ratioP2;P2;SDS_P1;SDS_P2;PMS_P1;PMS_P2;Temp;Humidity;BMP_temperature;BMP_pressure;BME280_temperature;BME280_humidity;BME280_pressure;Samples;Min_cycle;Max_cycle;Signal;HPM_P1;HPM_P2
2022/08/14 00:02:37;;;;;;;6.85;6.15;;;21.00;72.20;;;19.80;59.32;99479.19;10267676;28;98666;-84
2022/08/14 00:07:40;;;;;;;7.05;6.20;;;21.00;72.20;;;19.81;59.59;99472.75;10283205;28;97646;-85
2022/08/14 00:12:49;;;;;;;5.72;5.13;;;21.00;72.30;;;19.77;59.79;99474.28;10265203;28;97374;-85
2022/08/14 00:17:59;;;;;;;7.60;5.82;;;21.00;72.50;;;19.77;59.65;99482.38;10275122;28;97119;-85
2022/08/14 00:23:04;;;;;;;6.97;6.28;;;21.00;72.50;;;19.77;59.70;99471.59;10261135;28;98999;-84
2022/08/14 00:28:14;;;;;;;7.72;5.95;;;21.00;72.50;;;19.74;60.07;99477.50;10278104;28;97561;-85
2022/08/14 00:33:20;;;;;;;6.78;5.90;;;21.00;72.70;;;19.69;60.30;99477.41;10287560;28;98093;-85
2022/08/14 00:38:43;;;;;;;6.68;5.97;;;21.00;72.90;;;19.61;61.01;99475.94;10248249;28;96968;-85
2022/08/14 00:43:47;;;;;;;6.45;5.82;;;21.00;73.00;;;19.56;60.32;99469.63;10236009;28;96833;-84
2022/08/14 00:48:51;;;;;;;6.10;5.50;;;20.90;72.90;;;19.43;60.49;99468.03;10232663;28;97910;-84
2022/08/14 00:53:55;;;;;;;7.07;6.38;;;20.80;73.10;;;19.34;60.72;99469.50;10249786;28;97186;-84
2022/08/14 00:58:59;;;;;;;6.50;5.78;;;20.60;73.50;;;19.26;61.36;99476.09;10240920;28;96995;-84
2022/08/14 01:04:03;;;;;;;7.50;5.43;;;20.60;73.90;;;19.15;61.15;99472.41;10241894;28;99089;-83
2022/08/14 01:09:08;;;;;;;7.35;5.65;;;20.50;73.90;;;19.10;61.23;99479.56;10253763;28;96946;-85
2022/08/14 01:14:13;;;;;;;6.13;5.50;;;20.40;74.00;;;19.06;61.44;99473.03;10247041;28;98770;-84
2022/08/14 01:24:56;;;;;;;6.60;5.40;;;20.20;74.40;;;18.88;61.75;99480.22;10246762;28;96599;-85
2022/08/14 01:29:59;;;;;;;5.38;4.88;;;20.20;74.50;;;18.88;61.86;99482.09;10234268;28;96658;-85
2022/08/14 01:35:07;;;;;;;6.13;5.10;;;20.20;74.50;;;18.83;61.92;99474.78;10247252;28;96872;-84
2022/08/14 01:40:30;;;;;;;6.13;5.53;;;20.10;74.60;;;18.82;61.98;99473.09;10228041;28;97287;-85
2022/08/14 01:45:44;;;;;;;5.57;4.93;;;20.10;74.80;;;18.80;61.91;99472.53;10220631;28;98968;-85
2022/08/14 01:51:07;;;;;;;8.20;5.32;;;20.00;75.00;;;18.80;62.49;99477.91;10203277;28;97036;-84
2022/08/14 01:56:36;;;;;;;6.93;5.03;;;20.00;75.10;;;18.76;62.34;99466.00;10213532;28;96812;-85
2022/08/14 02:01:41;;;;;;;7.30;5.50;;;20.00;75.40;;;18.71;62.58;99466.72;10217279;28;97448;-84
2022/08/14 02:07:02;;;;;;;5.40;4.70;;;20.00;75.50;;;18.70;63.02;99464.25;10214363;28;97421;-85
2022/08/14 02:12:08;;;;;;;6.82;6.13;;;20.00;75.70;;;18.72;62.90;99462.16;10206790;28;98341;-84
2022/08/14 02:17:22;;;;;;;6.82;6.10;;;20.00;75.80;;;18.69;62.96;99468.81;10183288;28;98361;-84
2022/08/14 02:22:26;;;;;;;6.45;5.30;;;20.00;75.90;;;18.68;63.06;99472.56;10234453;28;96878;-85
2022/08/14 02:27:36;;;;;;;6.00;5.40;;;20.00;76.10;;;18.68;63.25;99463.69;10234674;28;98328;-85
2022/08/14 02:33:00;;;;;;;5.95;4.57;;;20.00;76.30;;;18.69;63.82;99474.19;10211768;28;97077;-85
2022/08/14 02:38:04;;;;;;;6.88;5.25;;;20.00;76.30;;;18.67;63.58;99470.13;10274359;28;97393;-85
2022/08/14 02:43:14;;;;;;;6.50;5.80;;;20.10;76.50;;;18.61;64.48;99479.13;10273329;28;98375;-85
2022/08/14 02:48:17;;;;;;;7.93;5.05;;;20.00;76.60;;;18.58;64.53;99488.47;10251663;28;97637;-86
2022/08/14 02:53:44;;;;;;;7.90;5.72;;;20.00;76.90;;;18.48;64.69;99487.47;10262674;28;98437;-85
2022/08/14 02:58:50;;;;;;;7.00;5.20;;;19.80;77.20;;;18.35;64.76;99483.97;10265057;28;98826;-85
2022/08/14 03:03:57;;;;;;;7.00;5.10;;;19.70;77.70;;;18.28;65.09;99477.06;10250895;28;98238;-85
2022/08/14 03:09:01;;;;;;;5.35;4.85;;;19.60;78.00;;;18.15;65.19;99475.44;10272276;28;97420;-84
2022/08/14 03:14:05;;;;;;;9.07;4.68;;;19.50;78.30;;;18.11;65.82;99483.16;10264034;28;96607;-85
2022/08/14 03:19:08;;;;;;;6.85;5.85;;;19.40;78.70;;;18.01;66.00;99485.63;10281552;28;97533;-85
2022/08/14 03:24:13;;;;;;;6.15;5.55;;;19.30;79.20;;;17.90;66.84;99479.19;10283243;28;96651;-85
2022/08/14 03:29:24;;;;;;;5.45;4.38;;;19.20;79.80;;;17.85;67.41;99484.41;10252603;28;96931;-85
2022/08/14 03:34:28;;;;;;;6.13;4.90;;;19.10;80.40;;;17.81;67.74;99480.59;10247426;28;96867;-85
2022/08/14 03:39:53;;;;;;;5.85;4.80;;;19.10;80.60;;;17.76;67.86;99485.84;10255661;28;96830;-85
2022/08/14 03:44:56;;;;;;;5.25;4.72;;;19.10;80.60;;;17.74;68.03;99489.78;10267179;28;98184;-85
2022/08/14 03:50:19;;;;;;;6.00;4.97;;;19.10;81.00;;;17.74;67.97;99487.91;10270211;28;98126;-85
2022/08/14 03:55:33;;;;;;;8.10;4.80;;;19.00;81.00;;;17.74;67.98;99487.09;10269492;28;97310;-85
2022/08/14 04:00:39;;;;;;;5.10;4.45;;;19.00;81.30;;;17.73;68.22;99497.03;10268652;28;97581;-84
2022/08/14 04:05:46;;;;;;;5.43;4.55;;;19.00;81.60;;;17.77;68.47;99498.22;10265781;28;97180;-85
2022/08/14 04:10:51;;;;;;;5.90;4.53;;;19.00;81.80;;;17.85;68.46;99497.03;10267595;28;97036;-84
2022/08/14 04:15:54;;;;;;;4.53;4.13;;;19.10;81.90;;;17.94;68.78;99494.84;10268853;28;97184;-83
2022/08/14 04:21:04;;;;;;;8.55;4.07;;;19.20;82.20;;;18.01;68.96;99485.63;10281186;28;97642;-83
2022/08/14 04:26:10;;;;;;;5.93;4.35;;;19.30;82.20;;;18.11;68.63;99487.69;10267469;28;96638;-83
2022/08/14 04:31:18;;;;;;;5.63;5.03;;;19.40;82.40;;;18.24;68.79;99492.88;10253965;28;96572;-83
2022/08/14 04:52:55;;;;;;;5.22;4.40;;;19.80;83.20;;;18.72;68.92;99499.84;10277966;28;96518;-84
2022/08/14 04:57:59;;;;;;;4.82;4.32;;;19.90;83.40;;;18.81;68.94;99503.78;10279803;28;97354;-83
2022/08/14 05:03:04;;;;;;;5.90;4.90;;;20.00;83.50;;;18.91;68.92;99508.56;10256453;28;96600;-84
2022/08/14 05:08:13;;;;;;;5.40;4.82;;;20.10;83.70;;;19.04;68.54;99500.19;10262730;28;96735;-84
2022/08/14 05:13:36;;;;;;;4.80;4.22;;;20.30;83.60;;;19.16;68.22;99511.75;10263953;28;98315;-84
2022/08/14 05:18:59;;;;;;;5.55;4.65;;;20.30;83.40;;;19.23;67.65;99508.91;10278052;28;96701;-83
2022/08/14 05:24:22;;;;;;;7.30;5.25;;;20.40;83.50;;;19.29;67.54;99510.63;10278471;28;96985;-83
2022/08/14 05:29:26;;;;;;;6.63;4.95;;;20.50;83.30;;;19.38;67.60;99506.50;10276201;28;97499;-84
2022/08/14 05:34:29;;;;;;;6.75;5.57;;;20.50;83.40;;;19.48;67.04;99506.66;10265272;28;97004;-83
2022/08/14 05:39:33;;;;;;;5.28;4.78;;;20.70;83.30;;;19.63;66.54;99511.53;10269653;28;97896;-83
2022/08/14 05:44:36;;;;;;;5.95;5.35;;;20.80;82.80;;;19.76;66.18;99519.31;10265186;28;96545;-83
2022/08/14 05:49:39;;;;;;;7.28;4.35;;;20.90;82.60;;;19.94;66.19;99514.72;10284046;28;96547;-83
2022/08/14 05:54:43;;;;;;;6.22;5.45;;;21.10;82.60;;;20.11;65.81;99512.84;10287663;28;98397;-83
2022/08/14 05:59:46;;;;;;;5.65;4.40;;;21.30;82.20;;;20.32;65.86;99519.34;10274061;28;96885;-83
2022/08/14 06:04:49;;;;;;;5.40;4.50;;;21.50;82.00;;;20.56;64.69;99514.56;10253566;28;97330;-83
2022/08/14 06:09:52;;;;;;;4.82;4.30;;;21.70;81.40;;;20.78;64.07;99525.41;10270291;28;97547;-83
2022/08/14 06:14:55;;;;;;;6.47;4.30;;;22.00;80.60;;;20.95;63.94;99509.94;10289681;28;97038;-83
2022/08/14 06:19:59;;;;;;;4.93;4.43;;;22.20;80.30;;;21.18;63.49;99497.25;10296317;28;96673;-82
2022/08/14 06:25:03;;;;;;;7.13;4.28;;;22.40;79.80;;;21.44;63.00;99493.72;10298583;28;96623;-83
2022/08/14 06:30:11;;;;;;;5.30;4.47;;;22.60;79.20;;;21.70;61.91;99491.25;10274309;28;96528;-83
2022/08/14 06:35:19;;;;;;;4.88;4.38;;;22.80;78.60;;;21.92;61.00;99486.56;10270671;28;96534;-83
2022/08/14 06:40:24;;;;;;;4.68;4.18;;;23.10;77.80;;;22.16;60.37;99487.03;10266075;28;98592;-83
2022/08/14 06:45:35;;;;;;;5.20;4.35;;;23.40;77.00;;;22.37;59.44;99483.38;10291314;28;96823;-83
2022/08/14 06:50:41;;;;;;;6.25;4.10;;;23.60;76.20;;;22.59;58.77;99472.38;10274529;28;97714;-84
2022/08/14 06:55:48;;;;;;;6.60;3.90;;;23.80;75.70;;;22.87;58.05;99482.00;10283281;28;98256;-83
2022/08/14 07:06:29;;;;;;;5.55;4.93;;;24.30;74.00;;;23.35;56.36;99471.00;10275302;28;96688;-82
2022/08/14 07:11:50;;;;;;;5.20;4.70;;;24.60;73.20;;;23.57;56.08;99460.72;10272881;28;97703;-82
2022/08/14 07:16:53;;;;;;;5.10;4.53;;;24.80;72.80;;;23.74;55.27;99455.81;10272205;28;98340;-83
2022/08/14 07:21:57;;;;;;;5.57;4.80;;;25.00;72.10;;;23.94;54.96;99454.22;10277007;28;97479;-83
2022/08/14 07:27:07;;;;;;;6.82;4.63;;;25.10;71.50;;;24.17;54.31;99458.22;10286615;28;98372;-83
2022/08/14 07:32:11;;;;;;;5.97;4.25;;;25.40;71.20;;;24.37;53.95;99450.06;10279973;28;97658;-83
2022/08/14 07:37:24;;;;;;;6.55;5.30;;;25.60;70.70;;;24.62;52.76;99453.75;10247927;28;99443;-83
2022/08/14 07:42:28;;;;;;;7.93;5.32;;;25.80;69.50;;;24.81;52.30;99438.44;10245712;28;97222;-83
2022/08/14 07:47:30;;;;;;;6.03;4.90;;;26.00;69.20;;;25.04;51.98;99445.13;10256793;28;98272;-83
2022/08/14 07:52:34;;;;;;;7.20;5.05;;;26.20;68.60;;;25.29;51.65;99453.13;10278041;28;96722;-83
2022/08/14 07:57:46;;;;;;;5.75;5.25;;;26.40;68.10;;;25.49;51.35;99451.34;10264374;28;98666;-83
2022/08/14 08:02:54;;;;;;;8.02;5.10;;;26.60;68.00;;;25.68;50.52;99438.69;10250472;28;97367;-84
2022/08/14 08:08:04;;;;;;;9.77;5.25;;;26.90;67.30;;;25.78;49.51;99438.59;10244731;28;96733;-83
2022/08/14 08:13:20;;;;;;;6.95;5.38;;;26.90;66.60;;;25.96;49.69;99433.53;10246935;28;96994;-83
2022/08/14 08:18:27;;;;;;;6.07;5.32;;;27.10;66.40;;;26.13;48.96;99425.75;10246700;28;98623;-84
2022/08/14 08:23:32;;;;;;;7.60;5.20;;;27.30;65.40;;;26.29;48.43;99429.13;10262285;28;96916;-84
2022/08/14 08:28:56;;;;;;;7.43;4.93;;;27.40;65.50;;;26.50;48.78;99432.41;10270286;28;96966;-84
2022/08/14 08:34:05;;;;;;;5.65;5.15;;;27.60;65.50;;;26.71;47.61;99422.91;10247802;28;97484;-84
2022/08/14 08:39:16;;;;;;;8.80;4.97;;;27.80;65.00;;;26.89;46.55;99427.53;10282673;28;97045;-84
2022/08/14 08:44:31;;;;;;;5.80;4.80;;;28.00;63.70;;;27.06;46.53;99420.81;10290714;28;96839;-84
2022/08/14 08:49:41;;;;;;;5.40;4.85;;;28.20;63.40;;;27.23;45.95;99412.06;10275469;28;96654;-85
2022/08/14 08:55:02;;;;;;;6.78;5.57;;;28.30;63.10;;;27.29;45.41;99405.44;10278676;28;96752;-84
2022/08/14 09:00:16;;;;;;;5.82;5.20;;;28.50;62.40;;;27.42;45.46;99401.97;10255932;28;96664;-84
2022/08/14 09:05:28;;;;;;;5.07;4.57;;;28.60;62.00;;;27.59;44.52;99404.09;10273725;28;97494;-84
2022/08/14 09:10:34;;;;;;;5.05;4.60;;;28.80;61.40;;;27.74;43.50;99403.88;10272604;28;97897;-84
2022/08/14 09:15:40;;;;;;;6.03;4.88;;;28.90;60.10;;;27.83;42.98;99401.25;10274486;28;97090;-85
2022/08/14 09:20:48;;;;;;;5.95;4.88;;;29.00;59.40;;;27.88;41.86;99391.03;10275969;28;97259;-85
2022/08/14 09:25:53;;;;;;;5.20;4.60;;;29.20;58.60;;;28.07;41.90;99393.72;10246555;28;97831;-84
2022/08/14 09:31:04;;;;;;;5.50;5.00;;;29.30;58.50;;;28.31;41.94;99385.31;10276930;28;96740;-83
2022/08/14 09:37:06;;;;;;;9.23;5.00;;;29.50;58.50;;;28.48;41.10;99388.22;10271962;28;97010;-82
2022/08/14 09:42:42;;;;;;;5.32;4.82;;;29.70;58.10;;;28.71;40.68;99380.09;10301502;28;97418;-83
2022/08/14 09:47:56;;;;;;;5.22;4.40;;;29.90;57.20;;;28.89;40.33;99376.41;10285839;28;99155;-82
2022/08/14 09:53:07;;;;;;;6.30;4.88;;;30.10;56.60;;;28.97;39.03;99362.03;10279678;28;97398;-83
2022/08/14 09:58:20;;;;;;;6.07;4.03;;;30.20;55.70;;;29.12;38.58;99351.84;10260625;28;97714;-83
2022/08/14 10:03:34;;;;;;;4.80;4.10;;;30.30;55.30;;;29.46;35.44;99346.59;10273979;28;96599;-84
2022/08/14 10:08:48;;;;;;;4.40;3.90;;;30.60;53.40;;;29.78;34.79;99353.69;10276399;28;97366;-83
2022/08/14 10:13:57;;;;;;;4.22;3.83;;;30.90;51.90;;;29.81;33.61;99341.31;10283419;28;96742;-83
2022/08/14 10:19:14;;;;;;;4.43;4.03;;;31.10;50.50;;;29.74;33.27;99340.94;10288680;28;96764;-84
2022/08/14 10:24:45;;;;;;;10.75;8.65;;;31.10;49.50;;;29.97;32.87;99342.47;10279485;28;96572;-83
2022/08/14 10:30:03;;;;;;;5.53;4.40;;;31.20;49.60;;;30.31;31.80;99341.81;10266966;28;97356;-83
2022/08/14 10:35:09;;;;;;;4.40;4.00;;;31.50;48.60;;;30.40;31.67;99330.84;10257740;28;96696;-82
2022/08/14 10:40:30;;;;;;;4.43;3.83;;;31.70;47.90;;;30.71;30.98;99338.16;10278928;28;96760;-83
2022/08/14 10:45:57;;;;;;;4.13;3.72;;;31.90;47.20;;;30.99;31.43;99339.44;10260448;28;96965;-83
2022/08/14 10:51:26;;;;;;;4.80;4.28;;;32.20;47.70;;;30.92;32.02;99345.44;10291957;28;97093;-83
2022/08/14 10:56:34;;;;;;;5.22;4.72;;;32.10;48.40;;;30.54;32.80;99353.47;10270546;28;97246;-86
2022/08/14 11:01:39;;;;;;;7.65;4.20;;;31.70;49.00;;;29.99;33.85;99343.00;10263340;28;97978;-83
2022/08/14 11:06:52;;;;;;;5.53;4.90;;;31.10;49.90;;;29.61;34.71;99339.13;10263531;28;98514;-83
2022/08/14 11:11:56;;;;;;;8.73;4.95;;;30.60;50.80;;;29.45;35.09;99330.47;10276446;28;98573;-83
2022/08/14 11:17:19;;;;;;;5.03;4.53;;;30.40;51.30;;;29.33;35.64;99320.13;10259247;28;97015;-83
2022/08/14 11:22:31;;;;;;;5.07;4.57;;;30.30;51.70;;;29.29;35.62;99321.84;10252150;28;97510;-83
2022/08/14 11:27:57;;;;;;;4.65;4.18;;;30.30;51.70;;;29.58;35.80;99318.66;10267000;28;96681;-83
2022/08/14 11:33:02;;;;;;;4.88;4.32;;;30.50;51.70;;;30.00;34.93;99316.41;10287008;28;96586;-82
2022/08/14 11:38:07;;;;;;;5.57;4.70;;;30.90;51.00;;;30.21;34.29;99308.41;10267605;28;96839;-83
2022/08/14 11:43:10;;;;;;;5.68;4.63;;;31.20;50.90;;;30.21;33.87;99303.75;10263128;28;97022;-83
2022/08/14 11:48:19;;;;;;;5.45;4.60;;;31.30;50.40;;;30.18;33.50;99301.66;10263693;28;97628;-83
2022/08/14 11:53:51;;;;;;;5.25;3.97;;;31.20;49.90;;;30.38;33.40;99300.22;10272569;28;98202;-83
2022/08/14 11:58:54;;;;;;;5.28;4.68;;;31.40;50.00;;;30.54;32.82;99276.69;10282374;28;97479;-83
2022/08/14 12:04:17;;;;;;;4.50;4.05;;;31.60;49.60;;;30.65;33.18;99275.25;10292095;28;97333;-83
2022/08/14 12:09:37;;;;;;;7.80;4.32;;;31.80;49.70;;;31.02;32.63;99269.41;10274449;28;97712;-84
2022/08/14 12:14:55;;;;;;;5.53;4.25;;;32.30;49.40;;;31.40;31.50;99264.81;10274586;28;96962;-83
2022/08/14 12:20:05;;;;;;;4.53;4.13;;;32.70;48.20;;;31.65;30.27;99263.06;10277459;28;97026;-84
2022/08/14 12:25:17;;;;;;;5.53;4.10;;;33.10;47.00;;;31.98;30.48;99261.66;10278733;28;96890;-83
2022/08/14 12:30:44;;;;;;;5.88;4.00;;;33.60;46.60;;;32.38;29.53;99248.28;10266114;28;97060;-83
2022/08/14 12:35:59;;;;;;;3.83;3.53;;;34.20;45.80;;;32.94;28.61;99246.03;10275670;28;97282;-84
2022/08/14 12:41:22;;;;;;;6.75;3.97;;;34.90;44.70;;;33.27;26.22;99248.72;10300165;28;99070;-84
2022/08/14 12:46:39;;;;;;;4.88;3.45;;;35.30;42.90;;;33.36;26.47;99245.88;10283559;28;97183;-84
2022/08/14 12:52:00;;;;;;;4.38;3.97;;;35.00;42.80;;;33.17;26.29;99243.69;10279485;28;96701;-84
2022/08/14 12:57:17;;;;;;;3.90;3.50;;;34.80;42.80;;;32.86;27.21;99238.63;10270614;28;96735;-83
2022/08/14 13:02:23;;;;;;;4.53;3.88;;;34.40;43.50;;;32.98;27.16;99230.44;10287396;28;96749;-83
2022/08/14 13:07:28;;;;;;;4.40;3.95;;;34.30;43.30;;;32.76;26.88;99221.41;10288927;28;97510;-84
2022/08/14 13:12:37;;;;;;;4.60;4.07;;;34.00;43.20;;;32.59;28.01;99221.59;10261787;28;98205;-83
2022/08/14 13:18:03;;;;;;;4.53;4.13;;;33.80;44.20;;;32.61;27.33;99218.50;10273121;28;96661;-83
2022/08/14 13:23:09;;;;;;;6.18;3.88;;;33.60;44.00;;;32.72;27.30;99211.44;10254908;28;96733;-83
2022/08/14 13:28:14;;;;;;;6.07;4.00;;;33.70;43.80;;;32.80;27.79;99201.47;10275152;28;96737;-83
2022/08/14 13:33:36;;;;;;;4.72;3.92;;;33.80;44.10;;;32.91;26.80;99208.19;10263311;28;99017;-83
2022/08/14 13:38:43;;;;;;;4.53;3.80;;;33.90;43.30;;;32.98;26.29;99202.91;10256826;28;97067;-83
2022/08/14 13:43:49;;;;;;;4.18;3.75;;;34.00;42.90;;;33.06;26.38;99184.72;10264299;28;97052;-83
2022/08/14 13:49:02;;;;;;;5.40;3.63;;;34.20;42.90;;;32.88;26.40;99182.16;10259700;28;97107;-83
2022/08/14 13:54:07;;;;;;;3.85;3.55;;;34.10;42.70;;;32.74;26.69;99176.13;10280879;28;99517;-83
2022/08/14 13:59:14;;;;;;;3.63;3.30;;;34.00;42.70;;;32.49;26.50;99178.00;10261753;28;96918;-83
2022/08/14 14:04:25;;;;;;;4.28;3.78;;;33.80;42.70;;;32.21;27.21;99175.81;10275841;28;96698;-83
2022/08/14 14:09:32;;;;;;;5.13;3.70;;;33.50;43.40;;;31.92;27.45;99162.16;10275120;28;96911;-83
2022/08/14 14:14:53;;;;;;;3.85;3.50;;;33.20;43.50;;;31.66;27.82;99168.56;10277196;28;96757;-83
2022/08/14 14:19:57;;;;;;;4.18;3.33;;;32.90;43.70;;;31.56;28.36;99166.22;10290709;28;97636;-84
2022/08/14 14:25:01;;;;;;;4.50;4.10;;;32.80;43.90;;;31.52;28.22;99162.53;10263673;28;98432;-83
2022/08/14 14:30:06;;;;;;;5.85;3.80;;;32.80;43.80;;;31.42;28.67;99163.69;10274434;28;96695;-84
2022/08/14 14:35:30;;;;;;;4.43;3.60;;;32.70;44.30;;;31.28;28.39;99168.63;10289610;28;96669;-83
2022/08/14 14:40:37;;;;;;;5.05;3.85;;;32.60;44.10;;;31.22;28.51;99158.13;10274947;28;96575;-83
2022/08/14 14:46:01;;;;;;;3.67;3.28;;;32.40;44.10;;;31.31;28.77;99161.69;10273549;28;96979;-84
2022/08/14 14:51:17;;;;;;;4.57;3.45;;;32.50;44.10;;;31.31;28.29;99148.78;10270882;28;96795;-84
2022/08/14 14:56:21;;;;;;;4.72;3.30;;;32.60;44.10;;;31.20;28.71;99141.22;10255006;28;96699;-84
2022/08/14 15:01:49;;;;;;;3.83;3.42;;;32.50;44.20;;;31.05;28.92;99140.59;10264152;28;97764;-85
2022/08/14 15:06:52;;;;;;;4.07;3.67;;;32.30;44.30;;;30.96;29.33;99145.34;10238077;28;96604;-85
2022/08/14 15:11:56;;;;;;;4.22;3.42;;;32.20;44.30;;;31.12;28.60;99149.13;10266647;28;96662;-85
2022/08/14 15:17:00;;;;;;;3.70;3.13;;;32.40;44.10;;;31.47;28.35;99143.50;10263063;28;98829;-84
2022/08/14 15:22:05;;;;;;;5.20;3.70;;;32.70;43.70;;;32.05;27.59;99135.53;10267030;28;96763;-84
2022/08/14 15:27:10;;;;;;;6.07;3.17;;;33.20;43.10;;;32.40;26.69;99136.84;10273298;28;96908;-84
2022/08/14 15:32:15;;;;;;;5.97;3.25;;;33.50;42.70;;;32.46;27.27;99134.69;10249672;28;96690;-84
2022/08/14 15:37:24;;;;;;;3.78;3.15;;;33.60;42.80;;;32.48;27.22;99138.69;10275012;28;96706;-84
2022/08/14 15:42:36;;;;;;;4.43;4.00;;;33.60;42.80;;;32.67;27.13;99132.66;10289299;28;96752;-84
2022/08/14 15:47:41;;;;;;;5.72;3.88;;;33.70;43.70;;;32.83;26.16;99137.53;10245918;28;97065;-84
2022/08/14 15:52:44;;;;;;;5.30;3.42;;;33.90;42.60;;;32.97;26.01;99138.03;10276247;28;96634;-84
2022/08/14 15:57:49;;;;;;;5.35;3.35;;;34.10;42.30;;;33.09;25.87;99134.47;10262241;28;97116;-84
2022/08/14 16:03:10;;;;;;;4.15;3.75;;;34.30;42.20;;;32.81;26.76;99139.81;10269687;28;97406;-84
2022/08/14 16:08:14;;;;;;;5.88;4.10;;;34.30;42.70;;;32.42;27.04;99133.75;10277603;28;97115;-85
2022/08/14 16:13:34;;;;;;;3.83;3.20;;;33.80;42.60;;;32.03;27.36;99135.88;10261184;28;98738;-85
2022/08/14 16:18:45;;;;;;;6.53;3.60;;;33.40;42.70;;;31.65;27.70;99134.00;10273173;28;97927;-85
2022/08/14 16:23:49;;;;;;;4.85;3.78;;;33.00;43.10;;;31.16;28.59;99138.31;10257593;28;97438;-85
2022/08/14 16:29:06;;;;;;;4.00;3.60;;;32.60;43.60;;;30.89;29.83;99134.06;10270980;28;98983;-85
2022/08/14 16:34:10;;;;;;;5.10;3.72;;;32.30;44.40;;;30.80;30.41;99142.31;10266982;28;97046;-85
2022/08/14 16:39:38;;;;;;;3.85;3.45;;;32.00;45.40;;;30.71;31.20;99148.94;10275036;28;96801;-84
2022/08/14 16:44:45;;;;;;;8.18;4.05;;;31.90;45.90;;;30.55;31.49;99151.41;10272824;28;96667;-84
2022/08/14 16:49:51;;;;;;;4.72;4.22;;;31.60;46.80;;;30.28;31.98;99144.31;10275338;28;97505;-84
2022/08/14 16:55:12;;;;;;;5.35;3.70;;;31.40;47.30;;;30.01;32.88;99157.22;10271199;28;97273;-84
2022/08/14 17:00:28;;;;;;;;;;;31.10;48.00;;;29.75;34.58;99165.41;10278135;28;97311;-84
2022/08/14 17:05:42;;;;;;;5.10;4.35;;;30.80;49.80;;;29.46;34.57;99155.00;10286083;28;97022;-84
2022/08/14 17:10:51;;;;;;;4.95;3.47;;;30.60;48.90;;;29.18;33.48;99153.63;10271303;28;98925;-84
2022/08/14 17:16:17;;;;;;;4.38;3.95;;;30.30;48.50;;;28.86;33.72;99150.09;10275894;28;97860;-84
2022/08/14 17:21:38;;;;;;;4.80;3.97;;;30.00;48.40;;;28.67;34.05;99154.94;10291624;28;97261;-84
2022/08/14 17:26:50;;;;;;;8.13;3.70;;;29.80;48.60;;;28.49;34.59;99170.47;10285615;28;96725;-83
2022/08/14 17:32:06;;;;;;;5.45;4.05;;;29.60;48.90;;;28.27;35.48;99168.50;10286446;28;96682;-85
2022/08/14 17:37:36;;;;;;;5.35;4.70;;;29.40;49.70;;;28.08;35.53;99176.03;10282501;28;97794;-85
2022/08/14 17:42:51;;;;;;;6.10;4.20;;;29.10;50.10;;;27.86;36.36;99177.59;10269337;28;98590;-84
2022/08/14 17:47:57;;;;;;;4.53;4.13;;;28.90;50.70;;;27.69;36.58;99185.63;10281953;28;99049;-83
2022/08/14 17:53:01;;;;;;;13.85;4.47;;;28.70;51.00;;;27.52;37.33;99179.94;10273715;28;98833;-84
2022/08/14 17:58:15;;;;;;;6.88;4.55;;;28.60;51.40;;;27.38;37.52;99194.41;10256139;28;97393;-84
2022/08/14 18:03:27;;;;;;;6.40;4.20;;;28.40;51.70;;;27.23;38.07;99183.81;10247626;28;96923;-85
2022/08/14 18:08:51;;;;;;;5.90;4.50;;;28.30;52.10;;;27.06;38.56;99189.03;10289321;28;99039;-84
2022/08/14 18:14:00;;;;;;;5.38;4.45;;;28.10;52.50;;;26.91;38.96;99181.91;10269043;28;96870;-84
2022/08/14 18:19:03;;;;;;;6.40;4.68;;;28.00;53.00;;;26.80;39.36;99180.47;10275958;28;96884;-84
2022/08/14 18:24:06;;;;;;;6.72;4.82;;;27.80;53.40;;;26.67;39.65;99163.78;10282056;28;96773;-84
2022/08/14 18:29:32;;;;;;;5.88;4.53;;;27.70;53.80;;;26.58;40.17;99173.75;10273561;28;96828;-84
2022/08/14 18:34:37;;;;;;;6.88;4.47;;;27.60;54.10;;;26.50;40.29;99177.16;10254570;28;97989;-84
2022/08/14 18:40:13;;;;;;;5.68;4.90;;;27.50;54.40;;;26.40;40.64;99171.84;10288416;28;97454;-84
2022/08/14 18:45:32;;;;;;;5.50;4.57;;;27.40;54.60;;;26.30;41.17;99175.53;10268392;28;97082;-84
2022/08/14 18:50:52;;;;;;;5.22;4.72;;;27.30;54.90;;;26.20;41.31;99170.25;10283173;28;96594;-84
2022/08/14 18:56:00;;;;;;;5.45;4.85;;;27.20;55.20;;;26.11;41.25;99169.31;10260952;28;96830;-84
2022/08/14 19:01:23;;;;;;;5.22;4.32;;;27.10;55.30;;;26.01;41.49;99180.34;10257806;28;97348;-84
2022/08/14 19:06:42;;;;;;;4.95;4.38;;;27.00;55.50;;;25.92;42.06;99182.13;10285651;28;96665;-84
2022/08/14 19:11:47;;;;;;;5.97;4.43;;;26.90;55.90;;;25.79;42.46;99183.63;10274239;28;97814;-84
2022/08/14 19:16:53;;;;;;;5.47;4.72;;;26.80;55.90;;;25.67;42.68;99181.31;10263892;28;98222;-84
2022/08/14 19:21:56;;;;;;;5.32;4.65;;;26.70;56.60;;;25.59;43.12;99184.66;10266077;28;96555;-84
2022/08/14 19:27:23;;;;;;;5.82;5.03;;;26.60;56.80;;;25.55;43.21;99191.78;10270318;28;96600;-84
2022/08/14 19:32:33;;;;;;;5.22;4.65;;;26.60;56.90;;;25.48;43.51;99185.91;10267003;28;97081;-84
2022/08/14 19:37:50;;;;;;;5.43;4.88;;;26.50;57.10;;;25.45;43.54;99184.56;10269240;28;97156;-85
2022/08/14 19:42:56;;;;;;;5.85;5.25;;;26.50;57.40;;;25.34;43.77;99175.72;10292996;28;96625;-85
2022/08/14 19:48:02;;;;;;;5.30;4.80;;;26.40;57.50;;;25.30;44.01;99182.03;10283058;28;97741;-85
2022/08/14 19:53:09;;;;;;;5.82;4.97;;;26.30;57.50;;;25.24;43.92;99183.97;10280526;28;96634;-84
2022/08/14 19:58:19;;;;;;;5.30;4.60;;;26.30;57.70;;;25.16;44.05;99183.81;10264043;28;97669;-84
2022/08/14 20:03:48;;;;;;;6.15;4.57;;;26.20;57.80;;;25.03;44.42;99190.72;10267197;28;97293;-84
2022/08/14 20:09:04;;;;;;;5.40;4.78;;;26.10;57.90;;;24.90;44.75;99186.78;10261219;28;96922;-85
2022/08/14 20:14:30;;;;;;;5.30;4.80;;;26.00;58.10;;;24.79;44.82;99186.06;10262065;28;99008;-84
2022/08/14 20:19:35;;;;;;;5.28;4.78;;;25.90;58.30;;;24.71;45.28;99183.97;10262164;28;96662;-85
2022/08/14 20:24:44;;;;;;;5.30;4.80;;;25.80;58.60;;;24.63;45.59;99195.44;10264047;28;96832;-84
2022/08/14 20:30:21;;;;;;;6.15;5.05;;;25.70;58.90;;;24.51;46.02;99181.41;10263338;28;96987;-85
2022/08/14 20:35:45;;;;;;;7.40;5.47;;;25.60;59.50;;;24.36;46.51;99176.13;10284999;28;98461;-84
2022/08/14 20:41:03;;;;;;;5.68;5.07;;;25.40;59.80;;;24.26;46.42;99176.97;10262170;28;97702;-85
2022/08/14 20:46:33;;;;;;;6.25;4.45;;;25.30;59.70;;;24.20;46.53;99184.31;10264170;28;98698;-85
2022/08/14 20:51:45;;;;;;;5.50;4.97;;;25.20;60.10;;;24.13;46.79;99189.25;10266134;28;98845;-84
2022/08/14 20:57:10;;;;;;;6.75;5.00;;;25.10;60.00;;;24.04;47.58;99199.06;10263237;28;97872;-87
2022/08/14 21:02:28;;;;;;;6.80;4.80;;;25.20;60.20;;;23.95;48.14;99214.34;10281113;28;97135;-85
2022/08/14 21:07:38;;;;;;;6.10;4.93;;;25.20;60.50;;;23.83;48.04;99220.09;10267007;28;96797;-85
2022/08/14 21:12:41;;;;;;;5.78;5.05;;;25.00;60.70;;;23.66;48.52;99215.00;10259728;28;97126;-85
2022/08/14 21:18:06;;;;;;;5.05;4.53;;;24.80;61.20;;;23.52;48.95;99208.53;10279645;28;99120;-85
2022/08/14 21:23:13;;;;;;;6.13;4.68;;;24.70;61.80;;;23.44;49.25;99217.22;10259833;28;98077;-85
2022/08/14 21:28:17;;;;;;;6.38;4.93;;;24.60;62.20;;;23.38;49.52;99219.13;10274944;28;98058;-85
2022/08/14 21:33:33;;;;;;;7.13;4.72;;;24.60;62.40;;;23.26;49.80;99220.53;10279681;28;98098;-85
2022/08/14 21:38:38;;;;;;;5.15;4.63;;;24.40;62.70;;;23.16;50.24;99224.09;10274639;28;96659;-85
2022/08/14 21:43:49;;;;;;;6.53;5.03;;;24.30;63.10;;;23.04;51.00;99216.25;10277722;28;96723;-85
2022/08/14 21:48:52;;;;;;;7.00;5.50;;;24.30;63.60;;;22.93;51.63;99218.16;10275339;28;98031;-85
2022/08/14 21:53:56;;;;;;;5.47;4.72;;;24.20;63.80;;;22.83;52.11;99211.88;10277914;28;98778;-85
2022/08/14 21:59:02;;;;;;;6.55;5.35;;;24.10;64.20;;;22.81;51.83;99219.47;10284156;28;96568;-85
2022/08/14 22:04:07;;;;;;;6.88;5.10;;;24.10;65.10;;;22.66;52.33;99201.31;10264440;28;97290;-85